Time;durP1;ratioP1;P1;durP2;ratioP2;P2;SDS_P1;SDS_P2;PMS_P1;PMS_P2;Temp;Humidity;BMP_temperature;BMP_pressure;BME280_temperature;BME280_humidity;BME280_pressure;Samples;Min_cycle;Max_cycle;Signal;HPM_P1;HPM_P2
2023/05/11 00:01:24;;;;;;;7.97;5.00;;;;;;;10.33;97.25;64023.97;5030721;28;20209;-57
2023/05/11 00:03:50;;;;;;;7.57;5.20;;;;;;;10.37;96.29;64030.88;5030961;28;20221;-57
2023/05/11 00:06:15;;;;;;;6.47;4.80;;;;;;;10.33;96.65;64029.56;5030699;28;20196;-58
2023/05/11 00:08:40;;;;;;;5.47;4.83;;;;;;;10.36;96.22;64029.78;4996339;28;20220;-56
2023/05/11 00:11:07;;;;;;;7.00;4.77;;;;;;;10.42;94.94;64033.81;5030769;28;20267;-56
2023/05/11 00:13:32;;;;;;;5.47;4.97;;;;;;;10.26;98.64;64018.84;5030692;28;20300;-57
2023/05/11 00:15:58;;;;;;;5.67;4.67;;;;;;;10.27;97.72;64022.44;5030462;28;20269;-56
2023/05/11 00:18:23;;;;;;;4.80;4.40;;;;;;;10.33;98.13;64026.47;5030486;28;20305;-57
2023/05/11 00:20:49;;;;;;;6.97;5.37;;;;;;;10.48;98.41;64045.97;5030609;28;20644;-55
2023/05/11 00:23:14;;;;;;;5.43;4.90;;;;;;;10.42;98.64;64036.34;5030470;28;20210;-57
2023/05/11 00:25:40;;;;;;;6.33;4.13;;;;;;;10.22;95.61;64014.47;5030554;28;20183;-58
2023/05/11 00:28:06;;;;;;;7.97;5.10;;;;;;;10.20;97.41;64010.28;5030613;28;20217;-56
2023/05/11 00:30:32;;;;;;;13.77;5.60;;;;;;;10.23;97.00;64013.59;5030369;28;20675;-57
2023/05/11 00:32:58;;;;;;;5.53;4.97;;;;;;;10.19;97.83;64011.16;5037794;22;20194;-57
2023/05/11 00:35:23;;;;;;;8.20;4.87;;;;;;;10.24;97.85;64016.66;5049557;28;20615;-58
2023/05/11 00:37:49;;;;;;;5.37;4.83;;;;;;;10.16;99.19;64008.44;5051077;28;20182;-57
2023/05/11 00:40:15;;;;;;;5.03;4.53;;;;;;;10.22;98.68;64011.94;5070365;28;20200;-61
2023/05/11 00:42:40;;;;;;;5.40;4.90;;;;;;;10.14;99.90;64003.72;5070003;28;20258;-57
2023/05/11 00:45:06;;;;;;;5.47;4.97;;;;;;;10.21;99.32;64013.34;5069923;28;20670;-57
2023/05/11 00:47:31;;;;;;;6.20;4.93;;;;;;;10.27;98.41;64019.91;5070086;28;20216;-56
2023/05/11 00:49:57;;;;;;;5.70;4.53;;;;;;;10.04;98.63;63998.34;5069919;28;20693;-57
2023/05/11 00:52:23;;;;;;;7.53;5.03;;;;;;;10.18;98.26;64010.09;5069913;28;20192;-57
2023/05/11 00:54:49;;;;;;;5.03;4.50;;;;;;;10.13;97.90;64005.16;5070074;28;20213;-57
2023/05/11 00:57:15;;;;;;;6.07;5.00;;;;;;;10.09;96.80;64003.28;5069793;28;20580;-59
2023/05/11 00:59:40;;;;;;;5.63;4.53;;;;;;;10.22;97.09;64014.47;5069589;28;20224;-57
2023/05/11 01:02:06;;;;;;;4.40;4.00;;;;;;;10.14;96.53;64006.25;5069988;28;20192;-60
2023/05/11 01:04:32;;;;;;;5.30;4.50;;;;;;;10.04;97.85;63995.84;5070153;28;20285;-59
2023/05/11 01:07:15;;;;;;;4.83;4.13;;;;;;;9.92;98.07;63980.19;5069479;28;20755;-59
2023/05/11 01:09:50;;;;;;;5.73;4.80;;;;;;;9.90;95.56;63978.00;5070058;28;20347;-59
2023/05/11 01:12:53;;;;;;;6.80;4.73;;;;;;;9.85;96.31;63974.50;5069689;28;20236;-60
2023/05/11 01:15:35;;;;;;;5.00;4.47;;;;;;;9.91;95.77;63979.09;5057084;28;20257;-60
2023/05/11 01:18:14;;;;;;;7.30;4.70;;;;;;;9.82;96.86;63968.69;5069573;28;20714;-60
2023/05/11 01:20:45;;;;;;;5.13;4.43;;;;;;;9.79;96.68;63965.44;5069701;28;20168;-59
2023/05/11 01:23:48;;;;;;;6.53;4.87;;;;;;;9.74;97.12;63963.00;5069474;28;20201;-61
2023/05/11 01:26:36;;;;;;;7.57;5.13;;;;;;;9.64;96.91;63947.06;5028125;28;20200;-55
2023/05/11 01:29:29;;;;;;;7.40;5.13;;;;;;;9.45;97.93;63931.31;5069288;28;20220;-55
2023/05/11 01:31:57;;;;;;;5.43;4.87;;;;;;;9.45;98.57;63930.75;5069649;28;20473;-57
2023/05/11 01:34:27;;;;;;;6.63;5.07;;;;;;;9.49;99.75;63932.63;5069710;28;20213;-57
2023/05/11 01:37:14;;;;;;;6.00;5.40;;;;;;;9.54;99.38;63941.16;5069324;28;20184;-57
2023/05/11 01:39:50;;;;;;;5.70;4.50;;;;;;;9.43;99.51;63926.63;5069330;28;20215;-59
2023/05/11 01:42:21;;;;;;;5.43;4.60;;;;;;;9.33;99.61;63920.72;5069298;28;20188;-59
2023/05/11 01:44:50;;;;;;;6.83;5.00;;;;;;;9.39;100.00;63924.75;5069215;28;20270;-63
2023/05/11 01:47:17;;;;;;;6.33;4.80;;;;;;;9.47;98.53;63932.94;5069160;28;20213;-59
2023/05/11 01:49:44;;;;;;;6.67;5.83;;;;;;;9.40;99.57;63925.28;5051327;28;20715;-59
2023/05/11 01:52:10;;;;;;;10.13;5.20;;;;;;;9.35;98.34;63920.38;5072396;28;20180;-58
2023/05/11 01:54:38;;;;;;;6.93;5.00;;;;;;;9.34;98.43;63919.28;5072765;28;20773;-58
2023/05/11 01:57:04;;;;;;;5.23;4.40;;;;;;;9.32;97.80;63917.09;5072497;28;20189;-57
2023/05/11 01:59:32;;;;;;;7.50;5.67;;;;;;;9.12;98.62;63895.78;5080023;22;20782;-58
2023/05/11 02:01:59;;;;;;;6.93;5.07;;;;;;;9.21;98.52;63908.13;5072394;28;20220;-59
2023/05/11 02:04:27;;;;;;;7.70;5.97;;;;;;;9.20;98.46;63901.47;5072386;28;20291;-63
2023/05/11 02:06:55;;;;;;;6.47;5.30;;;;;;;9.21;99.12;63905.09;5072293;28;20209;-57
2023/05/11 02:09:22;;;;;;;5.10;4.50;;;;;;;9.24;97.02;63908.34;5072200;28;20215;-57
2023/05/11 02:11:50;;;;;;;5.30;4.77;;;;;;;9.23;96.91;63905.28;5072346;28;20173;-61
2023/05/11 02:14:18;;;;;;;6.23;4.73;;;;;;;9.32;97.09;63919.63;5072690;28;20224;-58
2023/05/11 02:16:46;;;;;;;5.60;4.90;;;;;;;9.26;96.60;63908.56;5072472;28;20197;-59
2023/05/11 02:19:13;;;;;;;5.23;4.73;;;;;;;9.26;96.93;63910.53;5072537;28;20304;-59
2023/05/11 02:21:40;;;;;;;4.83;4.43;;;;;;;9.22;95.69;63906.16;5072420;28;20643;-57
2023/05/11 02:24:07;;;;;;;5.17;4.67;;;;;;;9.28;95.79;63912.72;5072098;28;20213;-56
2023/05/11 02:26:32;;;;;;;7.17;5.00;;;;;;;9.27;95.23;63911.66;5071985;28;20195;-56
2023/05/11 02:28:58;;;;;;;6.00;5.33;;;;;;;9.21;96.58;63908.13;5072015;28;20208;-57
2023/05/11 02:31:28;;;;;;;5.10;4.60;;;;;;;9.25;96.27;63909.47;5071908;28;20264;-56
2023/05/11 02:33:58;;;;;;;9.73;5.70;;;;;;;9.14;96.96;63897.97;5072295;28;20216;-60
2023/05/11 02:36:28;;;;;;;7.50;5.27;;;;;;;9.05;97.86;63885.63;5072017;28;20228;-60
2023/05/11 02:39:00;;;;;;;5.90;5.03;;;;;;;9.22;97.34;63906.16;5072277;28;20215;-60
2023/05/11 02:41:28;;;;;;;5.70;4.67;;;;;;;9.38;95.55;63923.66;5072023;28;20180;-59
2023/05/11 02:43:57;;;;;;;6.20;5.10;;;;;;;9.48;97.88;63934.03;5072060;28;20671;-59
2023/05/11 02:46:30;;;;;;;7.37;5.23;;;;;;;9.55;96.78;63941.69;5071690;28;20185;-60
2023/05/11 02:48:59;;;;;;;8.43;4.67;;;;;;;9.49;96.97;63933.19;5071662;28;20262;-59
2023/05/11 02:51:35;;;;;;;7.77;5.17;;;;;;;9.41;96.68;63926.94;5071776;28;20185;-58
2023/05/11 02:54:02;;;;;;;7.03;4.50;;;;;;;9.52;96.63;63941.47;5071942;28;20223;-58
2023/05/11 02:56:28;;;;;;;7.37;5.50;;;;;;;9.44;95.74;63932.72;5070386;28;20196;-58
2023/05/11 02:58:53;;;;;;;6.00;4.80;;;;;;;9.58;96.35;63948.03;5053898;28;20217;-57
2023/05/11 03:01:19;;;;;;;5.40;4.77;;;;;;;9.55;96.93;63939.75;5071725;28;20216;-58
2023/05/11 03:03:45;;;;;;;7.17;4.63;;;;;;;9.46;98.24;63934.91;5071827;28;20699;-58
2023/05/11 03:06:11;;;;;;;8.03;4.83;;;;;;;9.48;96.74;63934.59;5071402;28;20682;-58
2023/05/11 03:08:36;;;;;;;5.13;4.63;;;;;;;9.42;96.96;63930.53;5071562;28;20228;-59
2023/05/11 03:11:03;;;;;;;7.37;4.80;;;;;;;9.31;96.83;63914.03;5071444;28;20189;-58
2023/05/11 03:13:30;;;;;;;5.70;5.10;;;;;;;9.32;98.23;63919.63;5071348;28;20205;-58
2023/05/11 03:15:58;;;;;;;7.40;5.33;;;;;;;9.44;97.09;63929.66;5071606;28;20197;-59
2023/05/11 03:18:25;;;;;;;7.20;5.17;;;;;;;9.35;97.65;63919.84;5071516;28;20219;-58
2023/05/11 03:20:51;;;;;;;6.93;5.20;;;;;;;9.51;95.49;63937.88;5071314;28;20670;-59
2023/05/11 03:23:17;;;;;;;6.27;4.83;;;;;;;9.40;97.19;63925.84;5071605;28;20213;-58
2023/05/11 03:25:43;;;;;;;13.93;9.20;;;;;;;9.43;97.01;63929.13;5071018;28;20189;-59
2023/05/11 03:28:11;;;;;;;19.60;13.17;;;;;;;9.36;97.37;63923.44;5071094;28;20290;-58
2023/05/11 03:30:39;;;;;;;30.87;19.13;;;;;;;9.30;97.26;63914.91;5071425;28;20192;-59
2023/05/11 03:33:05;;;;;;;15.53;9.70;;;;;;;9.32;97.41;63917.09;5071380;28;20209;-58
2023/05/11 03:35:33;;;;;;;10.10;6.03;;;;;;;9.38;96.35;63923.09;5071240;28;20250;-58
2023/05/11 03:38:00;;;;;;;8.83;5.00;;;;;;;9.41;95.92;63926.41;5071081;28;20222;-59
2023/05/11 03:40:30;;;;;;;7.87;6.10;;;;;;;9.35;96.07;63919.84;5070997;28;20279;-57
2023/05/11 03:42:58;;;;;;;35.77;23.57;;;;;;;9.39;96.16;63927.28;5070964;28;20667;-57
2023/05/11 03:45:26;;;;;;;8.87;6.77;;;;;;;9.50;96.61;63934.25;5070939;28;20662;-57
2023/05/11 03:47:54;;;;;;;6.60;5.43;;;;;;;9.47;96.40;63932.94;5071072;28;20243;-57
2023/05/11 03:50:21;;;;;;;7.37;5.53;;;;;;;9.36;97.54;63920.91;5053364;28;20209;-57
2023/05/11 03:52:46;;;;;;;5.73;4.90;;;;;;;9.39;96.60;63924.22;5070908;28;20193;-57
2023/05/11 03:55:12;;;;;;;9.83;5.07;;;;;;;9.33;97.02;63915.69;5070866;28;20208;-55
2023/05/11 03:57:38;;;;;;;9.80;6.07;;;;;;;9.36;100.00;63921.47;5070863;28;20659;-57
2023/05/11 04:00:04;;;;;;;13.20;6.50;;;;;;;9.42;99.74;63924.97;5070676;28;20693;-57
2023/05/11 04:02:30;;;;;;;9.97;7.17;;;;;;;9.50;100.00;63934.25;5070862;28;20204;-57
2023/05/11 04:04:55;;;;;;;14.50;9.03;;;;;;;9.46;99.90;63929.34;5070754;28;20212;-56
2023/05/11 04:07:28;;;;;;;14.53;11.10;;;;;;;9.52;99.89;63941.47;5070717;28;20212;-59
2023/05/11 04:09:53;;;;;;;19.80;13.83;;;;;;;9.55;100.00;63944.22;5070768;28;20248;-58
2023/05/11 04:12:18;;;;;;;11.77;8.00;;;;;;;9.46;99.68;63932.41;5070743;28;20270;-58
2023/05/11 04:14:44;;;;;;;18.17;9.40;;;;;;;9.52;100.00;63940.94;5069969;28;20236;-55
2023/05/11 04:17:10;;;;;;;15.10;9.83;;;;;;;9.54;100.00;63941.16;5070534;28;20282;-55
2023/05/11 04:19:35;;;;;;;15.63;9.53;;;;;;;9.56;99.83;63943.34;5070333;28;20208;-56
2023/05/11 04:22:00;;;;;;;10.63;8.70;;;;;;;9.42;100.00;63927.47;5070324;28;20673;-57
2023/05/11 04:24:26;;;;;;;14.47;8.73;;;;;;;9.31;100.00;63916.53;5070116;28;20219;-60
2023/05/11 04:26:56;;;;;;;14.67;8.50;;;;;;;9.41;100.00;63929.47;5070285;28;20234;-59
2023/05/11 04:29:21;;;;;;;9.53;7.70;;;;;;;9.42;100.00;63930.53;5070602;28;20324;-58
2023/05/11 04:31:46;;;;;;;11.47;8.27;;;;;;;9.45;100.00;63931.31;5070483;28;20686;-58
2023/05/11 04:34:12;;;;;;;13.07;8.57;;;;;;;9.33;100.00;63918.72;5070110;28;20590;-59
2023/05/11 04:36:37;;;;;;;11.77;8.87;;;;;;;9.49;100.00;63935.13;5070343;28;20267;-59
2023/05/11 04:39:03;;;;;;;14.87;9.03;;;;;;;9.72;100.00;63958.31;5070436;28;20208;-60
2023/05/11 04:41:28;;;;;;;12.07;8.43;;;;;;;9.89;99.29;63981.94;5070377;28;20562;-58
2023/05/11 04:43:54;;;;;;;10.63;8.00;;;;;;;9.98;98.50;63991.22;5070163;28;20595;-60
2023/05/11 04:46:20;;;;;;;12.20;8.47;;;;;;;9.71;98.76;63959.19;5070168;28;20265;-60
2023/05/11 04:48:45;;;;;;;16.57;9.37;;;;;;;9.76;99.37;63967.72;5069997;28;20297;-60
2023/05/11 04:51:10;;;;;;;14.17;9.10;;;;;;;9.91;98.71;63981.06;5070044;28;20177;-60
2023/05/11 04:53:36;;;;;;;13.03;9.60;;;;;;;10.03;98.64;63994.75;5069941;28;20232;-60
2023/05/11 04:56:01;;;;;;;13.53;9.70;;;;;;;10.34;100.00;64030.09;5069988;28;20180;-61
2023/05/11 04:58:27;;;;;;;18.50;9.50;;;;;;;10.09;99.01;64001.31;5070251;28;20704;-60
2023/05/11 05:00:52;;;;;;;11.27;9.33;;;;;;;10.04;98.35;63993.31;5069950;28;20213;-55
2023/05/11 05:03:18;;;;;;;13.37;10.07;;;;;;;9.86;99.48;63975.59;5070314;28;20217;-56
2023/05/11 05:05:43;;;;;;;12.50;10.13;;;;;;;9.83;99.67;63972.31;5069847;28;20181;-57
2023/05/11 05:08:09;;;;;;;15.73;10.33;;;;;;;9.77;100.00;63968.81;5069828;28;20213;-59
2023/05/11 05:10:34;;;;;;;14.03;8.60;;;;;;;9.67;99.26;63955.38;5069738;28;20213;-55
2023/05/11 05:13:00;;;;;;;16.67;10.17;;;;;;;9.52;100.00;63938.97;5069618;28;20312;-58
2023/05/11 05:15:25;;;;;;;13.50;9.77;;;;;;;9.54;100.00;63940.59;5069815;28;20226;-57
2023/05/11 05:17:51;;;;;;;15.30;10.43;;;;;;;9.33;100.00;63916.22;5068340;28;20669;-57
2023/05/11 05:20:16;;;;;;;13.07;10.73;;;;;;;9.54;100.00;63941.16;5069548;28;20235;-57
2023/05/11 05:22:42;;;;;;;14.57;10.37;;;;;;;9.47;100.00;63936.03;5069202;28;20204;-56
2023/05/11 05:25:07;;;;;;;13.23;9.90;;;;;;;9.54;100.00;63938.63;5070224;28;20712;-57
2023/05/11 05:27:33;;;;;;;15.47;10.70;;;;;;;9.99;100.00;63987.84;5054894;28;20745;-57
2023/05/11 05:29:58;;;;;;;13.77;9.67;;;;;;;9.80;100.00;63969.56;5072756;28;21602;-59
2023/05/11 05:32:24;;;;;;;16.40;11.53;;;;;;;9.66;100.00;63951.75;5073005;28;20203;-56
2023/05/11 05:34:49;;;;;;;15.30;10.87;;;;;;;9.56;100.00;63942.78;5071122;28;20208;-55
2023/05/11 05:37:15;;;;;;;15.73;11.30;;;;;;;9.50;100.00;63933.72;5072832;28;20781;-56
2023/05/11 05:39:40;;;;;;;19.53;11.00;;;;;;;9.57;100.00;63941.38;5072403;28;20281;-57
2023/05/11 05:42:06;;;;;;;17.23;11.43;;;;;;;9.60;100.00;63947.16;5071934;28;20686;-55
2023/05/11 05:44:31;;;;;;;15.53;11.77;;;;;;;9.58;100.00;63944.97;5072711;28;20249;-57
2023/05/11 05:46:57;;;;;;;14.30;10.83;;;;;;;9.33;100.00;63923.22;5072353;28;20763;-56
2023/05/11 05:49:22;;;;;;;14.73;10.33;;;;;;;9.18;100.00;63899.84;5072544;28;20216;-56
2023/05/11 05:51:49;;;;;;;18.87;11.83;;;;;;;9.26;100.00;63908.03;5072175;28;20265;-60
2023/05/11 05:54:14;;;;;;;13.10;10.30;;;;;;;9.24;100.00;63908.34;5072652;28;20302;-59
2023/05/11 05:56:40;;;;;;;14.07;10.73;;;;;;;9.21;100.00;63905.09;5072683;28;20235;-60
2023/05/11 05:59:07;;;;;;;11.07;9.00;;;;;;;9.23;100.00;63905.28;5070898;28;20231;-59
2023/05/11 06:01:33;;;;;;;15.90;11.23;;;;;;;9.32;100.00;63919.63;5072776;28;20215;-58
2023/05/11 06:03:59;;;;;;;19.00;11.67;;;;;;;9.32;100.00;63919.63;5072857;28;20213;-59
2023/05/11 06:06:24;;;;;;;15.73;11.03;;;;;;;9.43;100.00;63926.06;5072664;28;20192;-56
2023/05/11 06:08:50;;;;;;;15.83;10.53;;;;;;;9.27;100.00;63912.16;5072603;28;20745;-58
2023/05/11 06:11:15;;;;;;;15.77;11.30;;;;;;;9.41;100.00;63926.41;5054370;28;20185;-55
2023/05/11 06:13:41;;;;;;;13.87;10.87;;;;;;;9.27;100.00;63909.66;5072270;28;20686;-56
2023/05/11 06:16:06;;;;;;;17.27;10.67;;;;;;;9.38;100.00;63923.09;5072322;28;20292;-57
2023/05/11 06:18:32;;;;;;;12.83;9.63;;;;;;;9.45;100.00;63933.84;5072222;28;20244;-56
2023/05/11 06:20:58;;;;;;;13.07;10.87;;;;;;;9.51;100.00;63937.88;5071154;28;20272;-57
2023/05/11 06:23:24;;;;;;;15.87;9.97;;;;;;;9.40;100.00;63928.34;5072259;28;20260;-55
2023/05/11 06:25:49;;;;;;;11.53;9.20;;;;;;;9.34;100.00;63916.78;5072279;28;20682;-57
2023/05/11 06:28:15;;;;;;;12.03;9.73;;;;;;;9.29;100.00;63914.34;5072153;28;20294;-56
2023/05/11 06:30:40;;;;;;;15.53;9.57;;;;;;;9.29;100.00;63913.81;5072440;28;20272;-57
2023/05/11 06:33:06;;;;;;;15.50;11.93;;;;;;;9.34;100.00;63921.78;5072186;28;20258;-59
2023/05/11 06:35:31;;;;;;;12.60;9.67;;;;;;;9.33;100.00;63918.72;5071913;28;20261;-58
2023/05/11 06:37:57;;;;;;;13.17;8.90;;;;;;;9.35;100.00;63920.38;5071388;28;20185;-58
2023/05/11 06:40:22;;;;;;;15.67;10.73;;;;;;;9.41;100.00;63926.94;5071870;28;20217;-57
2023/05/11 06:42:48;;;;;;;12.10;9.77;;;;;;;9.33;100.00;63918.72;5071964;28;20559;-58
2023/05/11 06:45:13;;;;;;;14.67;11.20;;;;;;;9.26;100.00;63910.53;5071928;28;20185;-58
2023/05/11 06:47:39;;;;;;;15.47;10.50;;;;;;;9.31;100.00;63916.00;5071505;28;20213;-59
2023/05/11 06:50:04;;;;;;;16.97;10.93;;;;;;;9.46;100.00;63934.38;5071551;28;20208;-59
2023/05/11 06:52:30;;;;;;;15.63;11.23;;;;;;;9.53;100.00;63940.06;5071049;28;20257;-57
2023/05/11 06:54:56;;;;;;;16.87;11.87;;;;;;;9.58;100.00;63945.53;5071739;28;20283;-57
2023/05/11 06:57:21;;;;;;;16.07;11.60;;;;;;;9.59;100.00;63946.63;5071561;28;20201;-59
2023/05/11 06:59:46;;;;;;;21.93;11.87;;;;;;;9.55;100.00;63944.78;5071543;28;20205;-57
2023/05/11 07:02:12;;;;;;;15.50;10.77;;;;;;;9.70;100.00;63958.09;5070060;28;21048;-60
2023/05/11 07:04:37;;;;;;;12.83;9.83;;;;;;;9.62;99.73;63947.38;5093836;22;20288;-57
2023/05/11 07:07:03;;;;;;;14.90;10.97;;;;;;;9.49;100.00;63935.69;5091709;28;20298;-60
2023/05/11 07:09:28;;;;;;;14.77;9.83;;;;;;;9.36;100.00;63918.94;5091676;28;20203;-56
2023/05/11 07:11:54;;;;;;;14.63;10.40;;;;;;;9.28;100.00;63915.78;5091787;28;20180;-57
2023/05/11 07:14:20;;;;;;;14.07;10.63;;;;;;;9.24;100.00;63908.91;5091281;28;20208;-59
2023/05/11 07:16:45;;;;;;;14.70;10.60;;;;;;;9.25;100.00;63912.50;5091527;28;20188;-58
2023/05/11 07:19:10;;;;;;;16.50;10.60;;;;;;;9.38;100.00;63923.09;5092008;28;20208;-59
2023/05/11 07:21:36;;;;;;;16.67;11.53;;;;;;;9.45;100.00;63928.25;5091747;28;20223;-58
2023/05/11 07:24:02;;;;;;;14.60;10.93;;;;;;;9.40;100.00;63928.34;5091687;28;20295;-58
2023/05/11 07:26:28;;;;;;;12.77;10.27;;;;;;;9.52;99.97;63938.41;5091454;28;20192;-59
2023/05/11 07:28:53;;;;;;;14.60;9.63;;;;;;;9.47;99.37;63933.50;5091014;28;20273;-58
2023/05/11 07:31:19;;;;;;;12.73;9.40;;;;;;;9.46;99.25;63931.84;5091457;28;20191;-58
2023/05/11 07:33:45;;;;;;;13.73;9.57;;;;;;;9.44;99.29;63929.66;5091225;28;20587;-57
2023/05/11 07:36:10;;;;;;;12.30;9.20;;;;;;;9.40;99.72;63928.34;5091554;28;20219;-58
2023/05/11 07:38:36;;;;;;;13.47;9.10;;;;;;;9.43;98.15;63928.59;5091483;28;20208;-59
2023/05/11 07:41:02;;;;;;;14.60;9.40;;;;;;;9.54;97.74;63941.16;5091183;28;20263;-58
2023/05/11 07:43:28;;;;;;;13.23;9.23;;;;;;;9.53;98.28;63940.06;5091488;28;20257;-57
2023/05/11 07:45:53;;;;;;;13.97;9.40;;;;;;;9.59;97.89;63946.06;5090868;28;20184;-58
2023/05/11 07:48:19;;;;;;;14.07;9.97;;;;;;;9.64;98.15;63947.06;5090219;28;20701;-57
2023/05/11 07:50:45;;;;;;;12.60;8.63;;;;;;;9.81;96.57;63973.19;5091151;28;20188;-57
2023/05/11 07:53:10;;;;;;;11.10;8.20;;;;;;;9.92;94.64;63985.22;5091086;28;20227;-58
2023/05/11 07:55:36;;;;;;;11.63;9.07;;;;;;;9.98;94.31;63991.78;5091018;28;20180;-57
2023/05/11 07:58:01;;;;;;;12.00;8.73;;;;;;;10.00;92.26;63993.97;5090707;28;20235;-58
2023/05/11 08:00:27;;;;;;;11.40;7.70;;;;;;;10.20;91.94;64014.78;5090813;28;20642;-58
2023/05/11 08:02:53;;;;;;;10.40;7.90;;;;;;;10.20;90.55;64012.81;5090637;28;20681;-57
2023/05/11 08:05:18;;;;;;;10.37;6.83;;;;;;;10.29;89.74;64022.09;5072555;28;20184;-57
2023/05/11 08:07:51;;;;;;;11.10;7.23;;;;;;;10.40;90.83;64034.72;5090664;28;20288;-58
2023/05/11 08:10:16;;;;;;;9.00;7.03;;;;;;;10.51;90.01;64046.75;5091060;28;20234;-58
2023/05/11 08:12:42;;;;;;;9.77;8.37;;;;;;;10.46;90.05;64043.25;5090889;28;20192;-59
2023/05/11 08:15:08;;;;;;;9.80;7.33;;;;;;;10.74;86.30;64071.91;5072526;28;20267;-58
2023/05/11 08:17:34;;;;;;;9.97;7.90;;;;;;;10.72;85.36;64071.69;5090540;28;20191;-58
2023/05/11 08:20:00;;;;;;;8.33;7.03;;;;;;;10.79;85.01;64074.31;5090429;28;20315;-60
2023/05/11 08:22:25;;;;;;;9.83;6.80;;;;;;;10.81;86.23;64079.03;5090513;28;20298;-60
2023/05/11 08:24:51;;;;;;;9.93;6.90;;;;;;;10.97;85.11;64097.09;5090732;28;20292;-60
2023/05/11 08:27:16;;;;;;;8.17;6.17;;;;;;;11.00;83.09;64099.84;5090406;28;20662;-61
2023/05/11 08:29:42;;;;;;;7.90;7.07;;;;;;;11.04;84.58;64101.13;5090613;28;20240;-58
2023/05/11 08:32:07;;;;;;;10.70;7.20;;;;;;;11.14;82.69;64115.16;5090500;28;20184;-59
2023/05/11 08:34:33;;;;;;;7.93;6.70;;;;;;;11.28;82.60;64127.44;5090580;28;20687;-60
2023/05/11 08:37:00;;;;;;;10.07;6.60;;;;;;;11.38;84.44;64141.44;5090315;28;20184;-59
2023/05/11 08:39:27;;;;;;;6.43;5.80;;;;;;;11.66;83.85;64169.63;5090266;28;20218;-59
2023/05/11 08:41:53;;;;;;;6.20;5.60;;;;;;;11.50;79.82;64152.06;5090521;28;20212;-59
2023/05/11 08:44:21;;;;;;;8.10;5.87;;;;;;;11.38;80.69;64141.44;5090329;28;20212;-59
2023/05/11 08:46:51;;;;;;;8.57;5.77;;;;;;;11.35;81.52;64138.16;5090149;28;20196;-59
2023/05/11 08:49:17;;;;;;;6.40;5.80;;;;;;;11.17;80.37;64115.91;5090706;28;20220;-59
2023/05/11 08:51:45;;;;;;;5.87;5.13;;;;;;;11.27;81.66;64131.91;5090397;28;20184;-58
2023/05/11 08:54:11;;;;;;;6.77;5.30;;;;;;;11.23;82.26;64125.00;5090404;28;20224;-60
2023/05/11 08:56:40;;;;;;;7.97;5.40;;;;;;;11.38;83.01;64138.94;5090386;28;20226;-60
2023/05/11 08:59:06;;;;;;;5.13;4.63;;;;;;;11.36;81.99;64139.25;5090450;28;20215;-65
2023/05/11 09:01:35;;;;;;;5.13;4.63;;;;;;;11.22;84.13;64123.94;5093808;28;20199;-59
2023/05/11 09:04:02;;;;;;;4.27;3.87;;;;;;;11.30;85.81;64130.16;5093787;28;20204;-58
2023/05/11 09:06:29;;;;;;;4.83;3.70;;;;;;;11.46;86.37;64147.69;5093726;28;20199;-60
2023/05/11 09:08:56;;;;;;;6.70;3.77;;;;;;;11.56;86.91;64158.66;5093463;28;20223;-59
2023/05/11 09:11:23;;;;;;;6.27;4.20;;;;;;;11.50;86.67;64152.06;5093573;28;20188;-60
2023/05/11 09:13:50;;;;;;;4.30;3.83;;;;;;;11.59;86.89;64164.47;5093431;28;20211;-57
2023/05/11 09:16:15;;;;;;;5.53;4.30;;;;;;;11.54;87.24;64158.97;5093709;28;20220;-60
2023/05/11 09:18:51;;;;;;;7.00;4.77;;;;;;;11.93;89.01;64198.13;5075462;28;20239;-60
2023/05/11 09:21:17;;;;;;;3.93;3.60;;;;;;;11.90;85.12;64194.84;5093435;28;20195;-60
2023/05/11 09:23:43;;;;;;;5.70;3.87;;;;;;;11.79;86.25;64183.31;5093299;28;20232;-59
2023/05/11 09:26:35;;;;;;;5.50;4.30;;;;;;;11.89;85.58;64199.34;5075242;28;20276;-60
2023/05/11 09:29:00;;;;;;;6.30;5.00;;;;;;;12.02;87.31;64208.00;5090381;28;20280;-57
2023/05/11 09:31:39;;;;;;;4.13;3.70;;;;;;;11.78;86.26;64182.78;5093321;28;20263;-56
2023/05/11 09:34:12;;;;;;;4.70;3.70;;;;;;;11.85;86.46;64189.91;5093654;28;20376;-58
2023/05/11 09:36:38;;;;;;;6.73;3.90;;;;;;;11.77;85.45;64184.22;5093522;28;20270;-57
2023/05/11 09:39:04;;;;;;;6.03;4.77;;;;;;;11.61;88.12;64168.63;5093161;28;20791;-57
2023/05/11 09:41:30;;;;;;;6.00;4.07;;;;;;;11.52;87.78;64154.28;5093376;28;20189;-56
2023/05/11 09:44:11;;;;;;;6.27;4.70;;;;;;;11.52;88.05;64159.31;5093433;28;20697;-58
2023/05/11 09:46:39;;;;;;;5.67;4.67;;;;;;;11.52;88.07;64154.28;5093358;28;20199;-56
2023/05/11 09:49:05;;;;;;;5.53;4.90;;;;;;;11.26;88.53;64130.28;5074515;28;20631;-56
2023/05/11 09:51:33;;;;;;;7.53;4.90;;;;;;;11.36;87.58;64136.75;5093140;28;20272;-57
2023/05/11 09:54:00;;;;;;;6.00;4.23;;;;;;;11.38;86.94;64141.44;5092886;28;20694;-56
2023/05/11 09:56:53;;;;;;;6.33;5.00;;;;;;;11.33;88.72;64132.91;5092839;28;20791;-56
2023/05/11 09:59:38;;;;;;;5.70;4.80;;;;;;;11.44;87.71;64148.03;5092985;28;20219;-60
2023/05/11 10:02:23;;;;;;;5.47;4.90;;;;;;;11.47;87.41;64153.81;5093058;28;20201;-56
2023/05/11 10:04:58;;;;;;;5.40;4.90;;;;;;;11.39;87.56;64142.00;5093072;28;20654;-56
2023/05/11 10:07:34;;;;;;;5.10;4.60;;;;;;;11.45;88.12;64151.63;5092510;28;20223;-57
2023/05/11 10:10:04;;;;;;;5.40;4.50;;;;;;;11.37;86.19;64139.81;5092740;28;20199;-60
2023/05/11 10:12:32;;;;;;;6.07;4.37;;;;;;;11.40;87.93;64145.63;5091994;28;20253;-60
2023/05/11 10:15:03;;;;;;;10.67;4.23;;;;;;;11.27;86.86;64129.41;5092380;28;20625;-60
2023/05/11 10:17:30;;;;;;;4.20;3.53;;;;;;;11.41;88.08;64144.72;5075361;28;20196;-60
2023/05/11 10:19:56;;;;;;;3.50;3.20;;;;;;;11.47;85.96;64151.31;5093443;22;20225;-60
2023/05/11 10:22:27;;;;;;;4.47;3.93;;;;;;;11.45;85.87;64146.06;5072302;28;20208;-58
2023/05/11 10:24:55;;;;;;;6.60;4.03;;;;;;;11.46;85.61;64150.22;5072319;28;20231;-59
2023/05/11 10:27:21;;;;;;;6.33;4.10;;;;;;;11.44;85.75;64150.56;5072079;28;20216;-59
2023/05/11 10:29:47;;;;;;;8.13;4.57;;;;;;;11.60;86.40;64168.06;5072370;28;20728;-61
2023/05/11 10:32:16;;;;;;;5.73;4.30;;;;;;;11.64;86.24;64169.94;5072138;28;20192;-59
2023/05/11 10:34:42;;;;;;;6.83;5.13;;;;;;;11.60;87.59;64168.06;5079694;22;20687;-57
2023/05/11 10:37:08;;;;;;;5.70;3.57;;;;;;;11.73;87.40;64182.34;5072146;28;20211;-56
2023/05/11 10:39:38;;;;;;;4.97;3.50;;;;;;;11.91;83.98;64201.53;5072009;28;20232;-56
2023/05/11 10:42:24;;;;;;;5.37;3.53;;;;;;;12.13;86.49;64223.13;5070709;28;20191;-58
2023/05/11 10:45:04;;;;;;;5.97;3.43;;;;;;;12.24;85.35;64232.63;5071937;28;20219;-57
2023/05/11 10:48:07;;;;;;;4.00;3.20;;;;;;;12.30;82.81;64241.22;5072057;28;20382;-58
2023/05/11 10:51:04;;;;;;;6.33;3.30;;;;;;;12.49;83.21;64262.59;5071933;28;20207;-55
2023/05/11 10:53:47;;;;;;;3.57;3.17;;;;;;;12.28;80.57;64242.06;5072065;28;20270;-55
2023/05/11 10:56:16;;;;;;;4.17;3.77;;;;;;;12.24;80.93;64232.09;5071726;28;20193;-56
2023/05/11 10:59:03;;;;;;;7.27;3.70;;;;;;;12.11;81.47;64220.38;5071842;28;20224;-56
2023/05/11 11:01:57;;;;;;;4.63;3.10;;;;;;;12.04;81.10;64215.25;5071784;28;20722;-57
2023/05/11 11:04:22;;;;;;;4.10;3.53;;;;;;;11.91;81.26;64201.53;5071535;28;20220;-55
2023/05/11 11:07:03;;;;;;;4.53;3.00;;;;;;;11.73;80.87;64177.31;5071479;28;20189;-56
2023/05/11 11:09:48;;;;;;;3.90;3.30;;;;;;;11.64;81.60;64169.94;5071647;28;20224;-55
2023/05/11 11:12:14;;;;;;;5.13;3.10;;;;;;;11.63;82.40;64166.34;5053604;28;20342;-56
2023/05/11 11:15:06;;;;;;;4.13;2.73;;;;;;;11.82;81.03;64186.59;5053705;28;20212;-56
2023/05/11 11:17:33;;;;;;;7.27;3.30;;;;;;;11.96;81.53;64206.47;5066989;28;20212;-55
2023/05/11 11:20:07;;;;;;;4.70;3.37;;;;;;;12.09;79.82;64220.72;5071161;28;20205;-55
2023/05/11 11:22:40;;;;;;;5.07;3.20;;;;;;;11.74;80.87;64178.41;5071601;28;20279;-54
2023/05/11 11:25:06;;;;;;;8.20;3.90;;;;;;;11.59;82.13;64161.94;5071450;28;20192;-56
2023/05/11 11:27:43;;;;;;;4.97;3.27;;;;;;;11.79;82.65;64185.84;5071153;28;20725;-55
2023/05/11 11:30:17;;;;;;;3.83;2.97;;;;;;;11.84;81.41;64190.78;5071271;28;20188;-56
2023/05/11 11:32:43;;;;;;;9.27;3.80;;;;;;;11.99;81.49;64204.69;5071394;28;20196;-56
2023/05/11 11:35:39;;;;;;;4.73;3.50;;;;;;;12.14;80.84;64226.19;5071173;28;20196;-56
2023/05/11 11:38:06;;;;;;;6.43;3.77;;;;;;;12.40;79.38;64249.66;5071372;28;20216;-56